sensor_id;sensor_type;location;lat;lon;timestamp;P1;durP1;ratioP1;P2;durP2;ratioP2
20649;SDS011;10484;48.736;9.332;2022-09-30T00:01:24;0.80;;;0.43;;
20649;SDS011;10484;48.736;9.332;2022-09-30T00:03:54;3.40;;;0.70;;
20649;SDS011;10484;48.736;9.332;2022-09-30T00:06:21;1.57;;;1.10;;
20649;SDS011;10484;48.736;9.332;2022-09-30T00:08:48;0.70;;;0.70;;
20649;SDS011;10484;48.736;9.332;2022-09-30T00:11:18;0.70;;;0.50;;
20649;SDS011;10484;48.736;9.332;2022-09-30T00:13:46;1.40;;;1.13;;
20649;SDS011;10484;48.736;9.332;2022-09-30T00:16:14;0.93;;;0.60;;
20649;SDS011;10484;48.736;9.332;2022-09-30T00:18:41;0.80;;;0.70;;
20649;SDS011;10484;48.736;9.332;2022-09-30T00:21:09;0.97;;;0.63;;
20649;SDS011;10484;48.736;9.332;2022-09-30T00:23:36;0.60;;;0.60;;
20649;SDS011;10484;48.736;9.332;2022-09-30T00:26:04;0.60;;;0.50;;
20649;SDS011;10484;48.736;9.332;2022-09-30T00:28:33;1.00;;;1.00;;
20649;SDS011;10484;48.736;9.332;2022-09-30T00:30:59;0.90;;;0.70;;
20649;SDS011;10484;48.736;9.332;2022-09-30T00:33:26;1.27;;;0.93;;
20649;SDS011;10484;48.736;9.332;2022-09-30T00:35:52;1.80;;;1.07;;
20649;SDS011;10484;48.736;9.332;2022-09-30T00:38:18;2.50;;;1.37;;
20649;SDS011;10484;48.736;9.332;2022-09-30T00:40:44;0.67;;;0.67;;
20649;SDS011;10484;48.736;9.332;2022-09-30T00:43:14;0.90;;;0.90;;
20649;SDS011;10484;48.736;9.332;2022-09-30T00:45:44;1.40;;;0.63;;
20649;SDS011;10484;48.736;9.332;2022-09-30T00:48:16;1.47;;;0.87;;
20649;SDS011;10484;48.736;9.332;2022-09-30T00:50:49;1.67;;;1.07;;
20649;SDS011;10484;48.736;9.332;2022-09-30T00:56:22;1.50;;;1.00;;
20649;SDS011;10484;48.736;9.332;2022-09-30T00:58:51;1.50;;;1.40;;
20649;SDS011;10484;48.736;9.332;2022-09-30T01:01:20;2.00;;;1.23;;
20649;SDS011;10484;48.736;9.332;2022-09-30T01:03:49;1.93;;;0.63;;
20649;SDS011;10484;48.736;9.332;2022-09-30T01:06:16;0.90;;;0.70;;
20649;SDS011;10484;48.736;9.332;2022-09-30T01:08:43;0.50;;;0.40;;
20649;SDS011;10484;48.736;9.332;2022-09-30T01:11:09;1.33;;;0.80;;
20649;SDS011;10484;48.736;9.332;2022-09-30T01:13:36;1.00;;;0.80;;
20649;SDS011;10484;48.736;9.332;2022-09-30T01:16:17;1.00;;;0.90;;
20649;SDS011;10484;48.736;9.332;2022-09-30T01:27:04;1.43;;;0.70;;
20649;SDS011;10484;48.736;9.332;2022-09-30T01:37:55;0.90;;;0.90;;
20649;SDS011;10484;48.736;9.332;2022-09-30T01:40:29;0.80;;;0.80;;
20649;SDS011;10484;48.736;9.332;2022-09-30T01:43:06;1.93;;;1.00;;
20649;SDS011;10484;48.736;9.332;2022-09-30T01:45:48;1.80;;;1.10;;
20649;SDS011;10484;48.736;9.332;2022-09-30T01:48:30;0.87;;;0.87;;
20649;SDS011;10484;48.736;9.332;2022-09-30T01:51:06;1.13;;;0.90;;
20649;SDS011;10484;48.736;9.332;2022-09-30T01:53:38;1.67;;;1.57;;
20649;SDS011;10484;48.736;9.332;2022-09-30T01:56:11;1.80;;;0.67;;
20649;SDS011;10484;48.736;9.332;2022-09-30T02:01:15;1.13;;;0.77;;
20649;SDS011;10484;48.736;9.332;2022-09-30T02:03:47;2.80;;;1.33;;
20649;SDS011;10484;48.736;9.332;2022-09-30T02:06:18;1.03;;;0.73;;
20649;SDS011;10484;48.736;9.332;2022-09-30T02:11:28;2.17;;;1.37;;
20649;SDS011;10484;48.736;9.332;2022-09-30T02:13:59;1.60;;;0.67;;
20649;SDS011;10484;48.736;9.332;2022-09-30T02:16:42;1.10;;;1.03;;
20649;SDS011;10484;48.736;9.332;2022-09-30T02:21:55;2.00;;;1.23;;
20649;SDS011;10484;48.736;9.332;2022-09-30T02:24:40;1.27;;;1.13;;
20649;SDS011;10484;48.736;9.332;2022-09-30T02:27:09;1.20;;;1.00;;
20649;SDS011;10484;48.736;9.332;2022-09-30T02:29:47;1.23;;;1.13;;
20649;SDS011;10484;48.736;9.332;2022-09-30T02:32:21;1.07;;;0.97;;
20649;SDS011;10484;48.736;9.332;2022-09-30T02:34:55;1.33;;;1.23;;
20649;SDS011;10484;48.736;9.332;2022-09-30T02:37:26;1.60;;;1.00;;
20649;SDS011;10484;48.736;9.332;2022-09-30T02:42:34;1.30;;;1.20;;
20649;SDS011;10484;48.736;9.332;2022-09-30T02:45:04;1.37;;;1.10;;
20649;SDS011;10484;48.736;9.332;2022-09-30T02:50:14;1.77;;;1.63;;
20649;SDS011;10484;48.736;9.332;2022-09-30T02:55:54;3.73;;;2.20;;
20649;SDS011;10484;48.736;9.332;2022-09-30T02:58:34;1.10;;;0.70;;
20649;SDS011;10484;48.736;9.332;2022-09-30T03:01:03;1.50;;;1.10;;
20649;SDS011;10484;48.736;9.332;2022-09-30T03:03:32;1.83;;;1.00;;
20649;SDS011;10484;48.736;9.332;2022-09-30T03:06:03;1.30;;;1.00;;
20649;SDS011;10484;48.736;9.332;2022-09-30T03:08:29;1.57;;;0.87;;
20649;SDS011;10484;48.736;9.332;2022-09-30T03:10:55;1.30;;;0.90;;
20649;SDS011;10484;48.736;9.332;2022-09-30T03:13:28;1.63;;;1.10;;
20649;SDS011;10484;48.736;9.332;2022-09-30T03:24:50;1.80;;;1.07;;
20649;SDS011;10484;48.736;9.332;2022-09-30T03:27:50;0.63;;;0.63;;
20649;SDS011;10484;48.736;9.332;2022-09-30T03:30:26;1.17;;;0.77;;
20649;SDS011;10484;48.736;9.332;2022-09-30T03:35:45;0.93;;;0.93;;
20649;SDS011;10484;48.736;9.332;2022-09-30T03:38:28;0.83;;;0.83;;
20649;SDS011;10484;48.736;9.332;2022-09-30T03:41:18;2.77;;;1.10;;
20649;SDS011;10484;48.736;9.332;2022-09-30T03:44:04;1.57;;;1.37;;
20649;SDS011;10484;48.736;9.332;2022-09-30T03:46:56;1.10;;;1.00;;
20649;SDS011;10484;48.736;9.332;2022-09-30T03:49:27;1.43;;;1.10;;
20649;SDS011;10484;48.736;9.332;2022-09-30T03:51:57;1.80;;;0.90;;
20649;SDS011;10484;48.736;9.332;2022-09-30T03:54:24;1.57;;;1.47;;
20649;SDS011;10484;48.736;9.332;2022-09-30T03:56:50;1.43;;;1.10;;
20649;SDS011;10484;48.736;9.332;2022-09-30T03:59:18;1.87;;;1.60;;
20649;SDS011;10484;48.736;9.332;2022-09-30T04:01:51;1.20;;;1.10;;
20649;SDS011;10484;48.736;9.332;2022-09-30T04:04:17;1.40;;;0.93;;
20649;SDS011;10484;48.736;9.332;2022-09-30T04:06:43;1.23;;;0.93;;
20649;SDS011;10484;48.736;9.332;2022-09-30T04:09:09;1.30;;;1.03;;
20649;SDS011;10484;48.736;9.332;2022-09-30T04:11:35;1.43;;;1.20;;
20649;SDS011;10484;48.736;9.332;2022-09-30T04:14:01;1.97;;;0.90;;
20649;SDS011;10484;48.736;9.332;2022-09-30T04:16:29;2.60;;;1.23;;
20649;SDS011;10484;48.736;9.332;2022-09-30T04:18:56;1.27;;;0.80;;
20649;SDS011;10484;48.736;9.332;2022-09-30T04:21:21;2.00;;;1.60;;
20649;SDS011;10484;48.736;9.332;2022-09-30T04:23:47;1.40;;;1.00;;
20649;SDS011;10484;48.736;9.332;2022-09-30T04:26:14;1.23;;;0.77;;
20649;SDS011;10484;48.736;9.332;2022-09-30T04:28:41;1.63;;;1.00;;
20649;SDS011;10484;48.736;9.332;2022-09-30T04:31:07;1.03;;;0.90;;
20649;SDS011;10484;48.736;9.332;2022-09-30T04:33:34;2.07;;;0.97;;
20649;SDS011;10484;48.736;9.332;2022-09-30T04:36:00;0.60;;;0.60;;
20649;SDS011;10484;48.736;9.332;2022-09-30T04:38:26;1.03;;;0.70;;
20649;SDS011;10484;48.736;9.332;2022-09-30T04:40:52;1.27;;;1.10;;
20649;SDS011;10484;48.736;9.332;2022-09-30T04:43:19;1.20;;;0.97;;
20649;SDS011;10484;48.736;9.332;2022-09-30T04:45:47;1.43;;;1.27;;
20649;SDS011;10484;48.736;9.332;2022-09-30T04:48:14;2.20;;;1.80;;
20649;SDS011;10484;48.736;9.332;2022-09-30T04:50:40;1.83;;;0.67;;
20649;SDS011;10484;48.736;9.332;2022-09-30T04:53:07;2.53;;;1.73;;
20649;SDS011;10484;48.736;9.332;2022-09-30T04:55:35;2.40;;;1.30;;
20649;SDS011;10484;48.736;9.332;2022-09-30T04:58:01;1.87;;;1.30;;
20649;SDS011;10484;48.736;9.332;2022-09-30T05:00:26;0.93;;;0.70;;
20649;SDS011;10484;48.736;9.332;2022-09-30T05:02:52;2.00;;;1.00;;
20649;SDS011;10484;48.736;9.332;2022-09-30T05:05:17;1.70;;;1.10;;
20649;SDS011;10484;48.736;9.332;2022-09-30T05:07:44;1.77;;;1.40;;
20649;SDS011;10484;48.736;9.332;2022-09-30T05:10:10;3.63;;;1.40;;
20649;SDS011;10484;48.736;9.332;2022-09-30T05:12:37;2.00;;;1.70;;
20649;SDS011;10484;48.736;9.332;2022-09-30T05:15:04;3.60;;;1.60;;
20649;SDS011;10484;48.736;9.332;2022-09-30T05:17:30;1.53;;;1.10;;
20649;SDS011;10484;48.736;9.332;2022-09-30T05:19:56;2.60;;;1.43;;
20649;SDS011;10484;48.736;9.332;2022-09-30T05:22:22;3.43;;;1.20;;
20649;SDS011;10484;48.736;9.332;2022-09-30T05:24:51;2.87;;;1.80;;
20649;SDS011;10484;48.736;9.332;2022-09-30T05:27:18;1.67;;;1.17;;
20649;SDS011;10484;48.736;9.332;2022-09-30T05:29:44;2.47;;;1.60;;
20649;SDS011;10484;48.736;9.332;2022-09-30T05:32:09;2.03;;;1.00;;
20649;SDS011;10484;48.736;9.332;2022-09-30T05:34:35;1.30;;;1.20;;
20649;SDS011;10484;48.736;9.332;2022-09-30T05:37:03;1.67;;;1.50;;
20649;SDS011;10484;48.736;9.332;2022-09-30T05:39:33;2.63;;;1.70;;
20649;SDS011;10484;48.736;9.332;2022-09-30T05:41:59;2.10;;;1.90;;
20649;SDS011;10484;48.736;9.332;2022-09-30T05:44:25;3.03;;;1.30;;
20649;SDS011;10484;48.736;9.332;2022-09-30T05:46:50;2.27;;;1.80;;
20649;SDS011;10484;48.736;9.332;2022-09-30T05:49:16;2.10;;;1.40;;
20649;SDS011;10484;48.736;9.332;2022-09-30T05:51:42;3.53;;;2.27;;
20649;SDS011;10484;48.736;9.332;2022-09-30T05:54:08;2.00;;;1.77;;
20649;SDS011;10484;48.736;9.332;2022-09-30T05:56:35;1.70;;;1.50;;
20649;SDS011;10484;48.736;9.332;2022-09-30T05:59:03;2.93;;;2.03;;
20649;SDS011;10484;48.736;9.332;2022-09-30T06:01:29;3.20;;;1.93;;
20649;SDS011;10484;48.736;9.332;2022-09-30T06:03:54;3.67;;;1.47;;
20649;SDS011;10484;48.736;9.332;2022-09-30T06:06:20;1.07;;;0.97;;
20649;SDS011;10484;48.736;9.332;2022-09-30T06:08:46;1.63;;;1.20;;
20649;SDS011;10484;48.736;9.332;2022-09-30T06:11:16;1.53;;;1.33;;
20649;SDS011;10484;48.736;9.332;2022-09-30T06:13:43;2.23;;;1.77;;
20649;SDS011;10484;48.736;9.332;2022-09-30T06:16:10;3.00;;;1.93;;
20649;SDS011;10484;48.736;9.332;2022-09-30T06:18:36;2.67;;;1.33;;
20649;SDS011;10484;48.736;9.332;2022-09-30T06:21:05;1.77;;;0.90;;
20649;SDS011;10484;48.736;9.332;2022-09-30T06:23:33;3.30;;;2.30;;
20649;SDS011;10484;48.736;9.332;2022-09-30T06:25:59;5.20;;;2.23;;
20649;SDS011;10484;48.736;9.332;2022-09-30T06:28:26;4.37;;;1.97;;
20649;SDS011;10484;48.736;9.332;2022-09-30T06:30:52;4.17;;;2.70;;
20649;SDS011;10484;48.736;9.332;2022-09-30T06:33:19;1.43;;;1.23;;
20649;SDS011;10484;48.736;9.332;2022-09-30T06:35:45;3.93;;;1.97;;
20649;SDS011;10484;48.736;9.332;2022-09-30T06:38:12;6.40;;;3.00;;
20649;SDS011;10484;48.736;9.332;2022-09-30T06:40:41;2.27;;;1.90;;
20649;SDS011;10484;48.736;9.332;2022-09-30T06:43:08;2.97;;;1.70;;
20649;SDS011;10484;48.736;9.332;2022-09-30T06:45:35;7.13;;;1.93;;
20649;SDS011;10484;48.736;9.332;2022-09-30T06:48:02;2.00;;;1.30;;
20649;SDS011;10484;48.736;9.332;2022-09-30T06:50:30;3.63;;;2.10;;
20649;SDS011;10484;48.736;9.332;2022-09-30T06:52:56;2.10;;;1.33;;
20649;SDS011;10484;48.736;9.332;2022-09-30T06:55:23;2.00;;;1.27;;
20649;SDS011;10484;48.736;9.332;2022-09-30T06:57:51;3.33;;;2.03;;
20649;SDS011;10484;48.736;9.332;2022-09-30T07:00:17;1.27;;;1.17;;
20649;SDS011;10484;48.736;9.332;2022-09-30T07:02:43;5.40;;;2.67;;
20649;SDS011;10484;48.736;9.332;2022-09-30T07:05:09;4.60;;;2.37;;
20649;SDS011;10484;48.736;9.332;2022-09-30T07:07:35;3.20;;;1.77;;
20649;SDS011;10484;48.736;9.332;2022-09-30T07:10:01;2.00;;;1.13;;
20649;SDS011;10484;48.736;9.332;2022-09-30T07:12:27;4.13;;;1.80;;
20649;SDS011;10484;48.736;9.332;2022-09-30T07:14:53;4.93;;;3.17;;
20649;SDS011;10484;48.736;9.332;2022-09-30T07:17:20;4.13;;;1.80;;
20649;SDS011;10484;48.736;9.332;2022-09-30T07:19:46;4.83;;;2.97;;
20649;SDS011;10484;48.736;9.332;2022-09-30T07:22:11;3.00;;;2.20;;
20649;SDS011;10484;48.736;9.332;2022-09-30T07:24:57;3.83;;;1.93;;
20649;SDS011;10484;48.736;9.332;2022-09-30T07:27:27;2.70;;;2.50;;
20649;SDS011;10484;48.736;9.332;2022-09-30T07:29:53;1.70;;;1.13;;
20649;SDS011;10484;48.736;9.332;2022-09-30T07:32:20;3.73;;;2.33;;
20649;SDS011;10484;48.736;9.332;2022-09-30T07:34:46;3.00;;;1.93;;
20649;SDS011;10484;48.736;9.332;2022-09-30T07:37:13;4.70;;;2.07;;
20649;SDS011;10484;48.736;9.332;2022-09-30T07:39:41;3.37;;;1.43;;
20649;SDS011;10484;48.736;9.332;2022-09-30T07:42:08;4.10;;;2.00;;
20649;SDS011;10484;48.736;9.332;2022-09-30T07:44:35;3.10;;;2.00;;
20649;SDS011;10484;48.736;9.332;2022-09-30T07:47:06;4.60;;;3.10;;
20649;SDS011;10484;48.736;9.332;2022-09-30T07:49:33;2.40;;;1.57;;
20649;SDS011;10484;48.736;9.332;2022-09-30T07:51:59;7.80;;;3.00;;
20649;SDS011;10484;48.736;9.332;2022-09-30T07:54:27;4.07;;;3.07;;
20649;SDS011;10484;48.736;9.332;2022-09-30T07:56:55;5.27;;;3.00;;
20649;SDS011;10484;48.736;9.332;2022-09-30T07:59:22;3.87;;;2.23;;
20649;SDS011;10484;48.736;9.332;2022-09-30T08:01:48;7.57;;;2.63;;
20649;SDS011;10484;48.736;9.332;2022-09-30T08:04:14;4.20;;;1.60;;
20649;SDS011;10484;48.736;9.332;2022-09-30T08:06:43;5.43;;;3.17;;
20649;SDS011;10484;48.736;9.332;2022-09-30T08:09:12;2.27;;;1.70;;
20649;SDS011;10484;48.736;9.332;2022-09-30T08:11:39;4.77;;;2.50;;
20649;SDS011;10484;48.736;9.332;2022-09-30T08:14:06;3.43;;;2.10;;
20649;SDS011;10484;48.736;9.332;2022-09-30T08:16:36;2.33;;;2.07;;
20649;SDS011;10484;48.736;9.332;2022-09-30T08:19:02;7.20;;;2.57;;
20649;SDS011;10484;48.736;9.332;2022-09-30T08:21:30;10.13;;;3.50;;
20649;SDS011;10484;48.736;9.332;2022-09-30T08:23:56;5.47;;;2.33;;
20649;SDS011;10484;48.736;9.332;2022-09-30T08:26:22;2.63;;;2.40;;
20649;SDS011;10484;48.736;9.332;2022-09-30T08:28:48;2.20;;;2.00;;
20649;SDS011;10484;48.736;9.332;2022-09-30T08:31:18;6.00;;;2.70;;
20649;SDS011;10484;48.736;9.332;2022-09-30T08:34:10;5.50;;;2.43;;
20649;SDS011;10484;48.736;9.332;2022-09-30T08:36:36;5.00;;;2.33;;
20649;SDS011;10484;48.736;9.332;2022-09-30T08:39:02;2.53;;;1.70;;
20649;SDS011;10484;48.736;9.332;2022-09-30T08:41:49;3.70;;;1.90;;
20649;SDS011;10484;48.736;9.332;2022-09-30T08:44:36;3.70;;;1.77;;
20649;SDS011;10484;48.736;9.332;2022-09-30T08:47:18;4.90;;;1.70;;
20649;SDS011;10484;48.736;9.332;2022-09-30T08:53:00;4.40;;;2.90;;
20649;SDS011;10484;48.736;9.332;2022-09-30T08:55:34;5.70;;;2.50;;
20649;SDS011;10484;48.736;9.332;2022-09-30T08:58:05;2.57;;;1.57;;
20649;SDS011;10484;48.736;9.332;2022-09-30T09:00:37;3.40;;;2.77;;
20649;SDS011;10484;48.736;9.332;2022-09-30T09:03:04;3.07;;;1.67;;
20649;SDS011;10484;48.736;9.332;2022-09-30T09:11:49;3.83;;;1.87;;
20649;SDS011;10484;48.736;9.332;2022-09-30T09:14:20;5.17;;;2.83;;
20649;SDS011;10484;48.736;9.332;2022-09-30T09:20:37;3.93;;;3.30;;
20649;SDS011;10484;48.736;9.332;2022-09-30T09:22:46;2.17;;;1.97;;
20649;SDS011;10484;48.736;9.332;2022-09-30T09:25:16;7.17;;;2.30;;
20649;SDS011;10484;48.736;9.332;2022-09-30T09:27:50;4.90;;;2.17;;
20649;SDS011;10484;48.736;9.332;2022-09-30T09:30:20;4.83;;;2.10;;
20649;SDS011;10484;48.736;9.332;2022-09-30T09:32:51;3.70;;;2.10;;
20649;SDS011;10484;48.736;9.332;2022-09-30T09:38:24;2.70;;;1.90;;
20649;SDS011;10484;48.736;9.332;2022-09-30T09:46:44;2.27;;;1.90;;
20649;SDS011;10484;48.736;9.332;2022-09-30T09:49:28;2.63;;;1.87;;
20649;SDS011;10484;48.736;9.332;2022-09-30T09:54:23;3.17;;;1.83;;
20649;SDS011;10484;48.736;9.332;2022-09-30T09:56:55;3.80;;;1.73;;
20649;SDS011;10484;48.736;9.332;2022-09-30T09:59:28;2.20;;;1.53;;
20649;SDS011;10484;48.736;9.332;2022-09-30T10:01:55;3.03;;;2.53;;
20649;SDS011;10484;48.736;9.332;2022-09-30T10:04:21;4.83;;;2.50;;
20649;SDS011;10484;48.736;9.332;2022-09-30T10:06:51;2.20;;;1.60;;
20649;SDS011;10484;48.736;9.332;2022-09-30T10:09:23;6.17;;;2.50;;
20649;SDS011;10484;48.736;9.332;2022-09-30T10:14:31;3.50;;;2.03;;
20649;SDS011;10484;48.736;9.332;2022-09-30T10:17:02;3.30;;;1.80;;
20649;SDS011;10484;48.736;9.332;2022-09-30T10:19:30;2.37;;;1.93;;
20649;SDS011;10484;48.736;9.332;2022-09-30T10:24:33;3.60;;;1.93;;
20649;SDS011;10484;48.736;9.332;2022-09-30T10:27:00;4.03;;;1.80;;
20649;SDS011;10484;48.736;9.332;2022-09-30T10:31:53;2.40;;;1.40;;
20649;SDS011;10484;48.736;9.332;2022-09-30T10:34:24;1.90;;;1.10;;
20649;SDS011;10484;48.736;9.332;2022-09-30T10:36:56;1.50;;;1.00;;
20649;SDS011;10484;48.736;9.332;2022-09-30T10:44:34;0.70;;;0.70;;
20649;SDS011;10484;48.736;9.332;2022-09-30T10:47:08;0.93;;;0.93;;
20649;SDS011;10484;48.736;9.332;2022-09-30T10:49:44;1.90;;;0.93;;
20649;SDS011;10484;48.736;9.332;2022-09-30T10:52:17;0.50;;;0.40;;
20649;SDS011;10484;48.736;9.332;2022-09-30T10:54:53;1.17;;;0.67;;
20649;SDS011;10484;48.736;9.332;2022-09-30T10:57:34;0.80;;;0.60;;
20649;SDS011;10484;48.736;9.332;2022-09-30T11:02:56;0.80;;;0.70;;
20649;SDS011;10484;48.736;9.332;2022-09-30T11:05:32;1.07;;;0.43;;
20649;SDS011;10484;48.736;9.332;2022-09-30T11:11:10;1.17;;;0.60;;
20649;SDS011;10484;48.736;9.332;2022-09-30T11:13:43;0.67;;;0.60;;
20649;SDS011;10484;48.736;9.332;2022-09-30T11:22:17;0.70;;;0.47;;
20649;SDS011;10484;48.736;9.332;2022-09-30T11:25:03;0.40;;;0.40;;
20649;SDS011;10484;48.736;9.332;2022-09-30T11:27:33;1.43;;;0.83;;
20649;SDS011;10484;48.736;9.332;2022-09-30T11:30:17;0.50;;;0.50;;
20649;SDS011;10484;48.736;9.332;2022-09-30T11:35:52;1.00;;;0.30;;
20649;SDS011;10484;48.736;9.332;2022-09-30T11:43:58;0.60;;;0.47;;
20649;SDS011;10484;48.736;9.332;2022-09-30T11:57:35;0.80;;;0.57;;
20649;SDS011;10484;48.736;9.332;2022-09-30T12:02:39;0.97;;;0.50;;
20649;SDS011;10484;48.736;9.332;2022-09-30T12:05:24;1.03;;;0.70;;
20649;SDS011;10484;48.736;9.332;2022-09-30T12:08:02;0.53;;;0.53;;
20649;SDS011;10484;48.736;9.332;2022-09-30T12:10:38;0.60;;;0.60;;
20649;SDS011;10484;48.736;9.332;2022-09-30T12:13:12;1.00;;;0.47;;
20649;SDS011;10484;48.736;9.332;2022-09-30T12:15:51;0.40;;;0.40;;
20649;SDS011;10484;48.736;9.332;2022-09-30T12:18:21;1.07;;;0.53;;
20649;SDS011;10484;48.736;9.332;2022-09-30T12:20:58;0.73;;;0.70;;
20649;SDS011;10484;48.736;9.332;2022-09-30T12:23:31;0.63;;;0.30;;
20649;SDS011;10484;48.736;9.332;2022-09-30T12:26:03;0.50;;;0.40;;
20649;SDS011;10484;48.736;9.332;2022-09-30T12:28:37;0.40;;;0.30;;
20649;SDS011;10484;48.736;9.332;2022-09-30T12:31:40;0.40;;;0.30;;
20649;SDS011;10484;48.736;9.332;2022-09-30T12:40:33;0.60;;;0.30;;
20649;SDS011;10484;48.736;9.332;2022-09-30T12:46:01;0.50;;;0.30;;
20649;SDS011;10484;48.736;9.332;2022-09-30T12:53:58;0.40;;;0.30;;
20649;SDS011;10484;48.736;9.332;2022-09-30T12:56:27;0.70;;;0.30;;
20649;SDS011;10484;48.736;9.332;2022-09-30T12:58:54;1.63;;;0.40;;
20649;SDS011;10484;48.736;9.332;2022-09-30T13:01:29;0.40;;;0.30;;
20649;SDS011;10484;48.736;9.332;2022-09-30T13:06:24;0.70;;;0.50;;
20649;SDS011;10484;48.736;9.332;2022-09-30T13:11:32;0.40;;;0.30;;
20649;SDS011;10484;48.736;9.332;2022-09-30T13:27:41;0.80;;;0.40;;
20649;SDS011;10484;48.736;9.332;2022-09-30T13:32:40;0.50;;;0.40;;
20649;SDS011;10484;48.736;9.332;2022-09-30T13:40:42;0.60;;;0.30;;
20649;SDS011;10484;48.736;9.332;2022-09-30T13:43:24;1.27;;;0.50;;
20649;SDS011;10484;48.736;9.332;2022-09-30T13:45:55;0.57;;;0.37;;
20649;SDS011;10484;48.736;9.332;2022-09-30T13:48:29;0.40;;;0.30;;
20649;SDS011;10484;48.736;9.332;2022-09-30T13:50:59;0.40;;;0.30;;
20649;SDS011;10484;48.736;9.332;2022-09-30T13:53:38;0.83;;;0.30;;
20649;SDS011;10484;48.736;9.332;2022-09-30T13:56:17;0.40;;;0.30;;
20649;SDS011;10484;48.736;9.332;2022-09-30T14:12:52;0.50;;;0.30;;
20649;SDS011;10484;48.736;9.332;2022-09-30T14:15:45;0.43;;;0.33;;
20649;SDS011;10484;48.736;9.332;2022-09-30T14:23:44;0.40;;;0.30;;
20649;SDS011;10484;48.736;9.332;2022-09-30T14:28:59;0.40;;;0.30;;
20649;SDS011;10484;48.736;9.332;2022-09-30T14:31:47;1.63;;;0.30;;
20649;SDS011;10484;48.736;9.332;2022-09-30T14:37:32;0.40;;;0.30;;
20649;SDS011;10484;48.736;9.332;2022-09-30T14:40:09;0.40;;;0.30;;
20649;SDS011;10484;48.736;9.332;2022-09-30T14:42:39;0.40;;;0.30;;
20649;SDS011;10484;48.736;9.332;2022-09-30T14:45:07;0.40;;;0.30;;
20649;SDS011;10484;48.736;9.332;2022-09-30T14:47:35;0.40;;;0.30;;
20649;SDS011;10484;48.736;9.332;2022-09-30T14:50:18;0.60;;;0.30;;
20649;SDS011;10484;48.736;9.332;2022-09-30T14:52:48;0.40;;;0.27;;
20649;SDS011;10484;48.736;9.332;2022-09-30T14:55:18;0.60;;;0.40;;
20649;SDS011;10484;48.736;9.332;2022-09-30T14:57:50;0.40;;;0.30;;
20649;SDS011;10484;48.736;9.332;2022-09-30T15:02:50;0.40;;;0.30;;
20649;SDS011;10484;48.736;9.332;2022-09-30T15:05:16;0.40;;;0.30;;
20649;SDS011;10484;48.736;9.332;2022-09-30T15:07:42;0.43;;;0.43;;
20649;SDS011;10484;48.736;9.332;2022-09-30T15:10:15;0.60;;;0.30;;
20649;SDS011;10484;48.736;9.332;2022-09-30T15:12:44;0.40;;;0.30;;
20649;SDS011;10484;48.736;9.332;2022-09-30T15:15:25;0.40;;;0.30;;
20649;SDS011;10484;48.736;9.332;2022-09-30T15:17:59;0.40;;;0.37;;
20649;SDS011;10484;48.736;9.332;2022-09-30T15:20:39;0.40;;;0.30;;
20649;SDS011;10484;48.736;9.332;2022-09-30T15:23:08;0.40;;;0.30;;
20649;SDS011;10484;48.736;9.332;2022-09-30T15:25:43;0.33;;;0.27;;
20649;SDS011;10484;48.736;9.332;2022-09-30T15:28:09;0.40;;;0.30;;
20649;SDS011;10484;48.736;9.332;2022-09-30T15:30:36;0.40;;;0.40;;
20649;SDS011;10484;48.736;9.332;2022-09-30T15:33:03;0.83;;;0.40;;
20649;SDS011;10484;48.736;9.332;2022-09-30T15:35:30;0.50;;;0.37;;
20649;SDS011;10484;48.736;9.332;2022-09-30T15:38:06;0.60;;;0.33;;
20649;SDS011;10484;48.736;9.332;2022-09-30T15:40:41;0.40;;;0.30;;
20649;SDS011;10484;48.736;9.332;2022-09-30T15:43:14;0.70;;;0.50;;
20649;SDS011;10484;48.736;9.332;2022-09-30T15:45:55;0.60;;;0.40;;
20649;SDS011;10484;48.736;9.332;2022-09-30T15:50:51;0.40;;;0.30;;
20649;SDS011;10484;48.736;9.332;2022-09-30T15:56:22;0.40;;;0.30;;
20649;SDS011;10484;48.736;9.332;2022-09-30T15:59:02;0.60;;;0.43;;
20649;SDS011;10484;48.736;9.332;2022-09-30T16:01:42;0.53;;;0.30;;
20649;SDS011;10484;48.736;9.332;2022-09-30T16:04:11;0.40;;;0.30;;
20649;SDS011;10484;48.736;9.332;2022-09-30T16:06:55;0.60;;;0.37;;
20649;SDS011;10484;48.736;9.332;2022-09-30T16:12:09;0.53;;;0.40;;
20649;SDS011;10484;48.736;9.332;2022-09-30T16:14:52;0.40;;;0.30;;
20649;SDS011;10484;48.736;9.332;2022-09-30T16:17:37;0.70;;;0.40;;
20649;SDS011;10484;48.736;9.332;2022-09-30T16:27:35;0.40;;;0.30;;
20649;SDS011;10484;48.736;9.332;2022-09-30T16:30:02;0.40;;;0.40;;
20649;SDS011;10484;48.736;9.332;2022-09-30T16:32:32;0.50;;;0.40;;
20649;SDS011;10484;48.736;9.332;2022-09-30T16:35:01;0.60;;;0.30;;
20649;SDS011;10484;48.736;9.332;2022-09-30T16:37:28;0.40;;;0.30;;
20649;SDS011;10484;48.736;9.332;2022-09-30T16:39:54;0.50;;;0.50;;
20649;SDS011;10484;48.736;9.332;2022-09-30T16:42:22;0.40;;;0.30;;
20649;SDS011;10484;48.736;9.332;2022-09-30T16:44:48;0.57;;;0.30;;
20649;SDS011;10484;48.736;9.332;2022-09-30T16:47:14;0.70;;;0.53;;
20649;SDS011;10484;48.736;9.332;2022-09-30T16:49:42;0.50;;;0.50;;
20649;SDS011;10484;48.736;9.332;2022-09-30T16:52:09;0.90;;;0.50;;
20649;SDS011;10484;48.736;9.332;2022-09-30T16:54:35;0.50;;;0.47;;
20649;SDS011;10484;48.736;9.332;2022-09-30T16:57:02;0.50;;;0.40;;
20649;SDS011;10484;48.736;9.332;2022-09-30T16:59:27;3.50;;;0.60;;
20649;SDS011;10484;48.736;9.332;2022-09-30T17:01:56;0.63;;;0.60;;
20649;SDS011;10484;48.736;9.332;2022-09-30T17:04:23;0.40;;;0.40;;
20649;SDS011;10484;48.736;9.332;2022-09-30T17:06:50;0.43;;;0.40;;
20649;SDS011;10484;48.736;9.332;2022-09-30T17:09:16;1.83;;;0.60;;
20649;SDS011;10484;48.736;9.332;2022-09-30T17:11:41;0.40;;;0.30;;
20649;SDS011;10484;48.736;9.332;2022-09-30T17:14:07;0.40;;;0.40;;
20649;SDS011;10484;48.736;9.332;2022-09-30T17:16:33;0.40;;;0.40;;
20649;SDS011;10484;48.736;9.332;2022-09-30T17:18:59;0.50;;;0.40;;
20649;SDS011;10484;48.736;9.332;2022-09-30T17:21:25;1.80;;;0.40;;
20649;SDS011;10484;48.736;9.332;2022-09-30T17:23:51;0.53;;;0.50;;
20649;SDS011;10484;48.736;9.332;2022-09-30T17:26:18;0.43;;;0.30;;
20649;SDS011;10484;48.736;9.332;2022-09-30T17:28:43;0.70;;;0.57;;
20649;SDS011;10484;48.736;9.332;2022-09-30T17:31:10;0.83;;;0.40;;
20649;SDS011;10484;48.736;9.332;2022-09-30T17:33:36;0.40;;;0.40;;
20649;SDS011;10484;48.736;9.332;2022-09-30T17:36:04;0.47;;;0.40;;
20649;SDS011;10484;48.736;9.332;2022-09-30T17:38:32;0.60;;;0.57;;
20649;SDS011;10484;48.736;9.332;2022-09-30T17:40:58;0.43;;;0.43;;
20649;SDS011;10484;48.736;9.332;2022-09-30T17:43:43;0.70;;;0.40;;
20649;SDS011;10484;48.736;9.332;2022-09-30T17:46:11;1.67;;;0.70;;
20649;SDS011;10484;48.736;9.332;2022-09-30T17:48:43;0.50;;;0.50;;
20649;SDS011;10484;48.736;9.332;2022-09-30T17:51:10;1.37;;;0.93;;
20649;SDS011;10484;48.736;9.332;2022-09-30T17:53:36;0.40;;;0.30;;
20649;SDS011;10484;48.736;9.332;2022-09-30T17:56:06;0.63;;;0.57;;
20649;SDS011;10484;48.736;9.332;2022-09-30T17:58:38;0.50;;;0.40;;
20649;SDS011;10484;48.736;9.332;2022-09-30T18:01:07;0.70;;;0.67;;
20649;SDS011;10484;48.736;9.332;2022-09-30T18:03:33;0.50;;;0.40;;
20649;SDS011;10484;48.736;9.332;2022-09-30T18:06:00;0.60;;;0.60;;
20649;SDS011;10484;48.736;9.332;2022-09-30T18:08:26;5.13;;;0.50;;
20649;SDS011;10484;48.736;9.332;2022-09-30T18:10:55;0.70;;;0.50;;
20649;SDS011;10484;48.736;9.332;2022-09-30T18:13:24;1.00;;;0.80;;
20649;SDS011;10484;48.736;9.332;2022-09-30T18:15:51;0.60;;;0.37;;
20649;SDS011;10484;48.736;9.332;2022-09-30T18:18:17;0.70;;;0.70;;
20649;SDS011;10484;48.736;9.332;2022-09-30T18:20:43;1.10;;;0.80;;
20649;SDS011;10484;48.736;9.332;2022-09-30T18:23:14;1.00;;;0.80;;
20649;SDS011;10484;48.736;9.332;2022-09-30T18:25:43;1.23;;;0.73;;
20649;SDS011;10484;48.736;9.332;2022-09-30T18:28:09;2.00;;;0.80;;
20649;SDS011;10484;48.736;9.332;2022-09-30T18:30:36;1.77;;;0.80;;